sensor_id;sensor_type;location;lat;lon;timestamp;P1;durP1;ratioP1;P2;durP2;ratioP2
24373;SDS011;12498;50.880;12.096;2022-11-03T00:01:54;12.80;;;4.18;;
24373;SDS011;12498;50.880;12.096;2022-11-03T00:04:20;11.10;;;4.00;;
24373;SDS011;12498;50.880;12.096;2022-11-03T00:06:48;17.45;;;4.85;;
24373;SDS011;12498;50.880;12.096;2022-11-03T00:09:15;13.50;;;4.45;;
24373;SDS011;12498;50.880;12.096;2022-11-03T00:11:43;19.38;;;4.47;;
24373;SDS011;12498;50.880;12.096;2022-11-03T00:14:10;21.42;;;4.70;;
24373;SDS011;12498;50.880;12.096;2022-11-03T00:16:36;15.23;;;4.20;;
24373;SDS011;12498;50.880;12.096;2022-11-03T00:19:03;14.35;;;4.72;;
24373;SDS011;12498;50.880;12.096;2022-11-03T00:21:30;17.13;;;4.80;;
24373;SDS011;12498;50.880;12.096;2022-11-03T00:23:56;15.60;;;5.03;;
24373;SDS011;12498;50.880;12.096;2022-11-03T00:26:22;15.20;;;4.13;;
24373;SDS011;12498;50.880;12.096;2022-11-03T00:28:50;13.63;;;4.50;;
24373;SDS011;12498;50.880;12.096;2022-11-03T00:31:27;13.45;;;4.30;;
24373;SDS011;12498;50.880;12.096;2022-11-03T00:33:54;13.27;;;4.13;;
24373;SDS011;12498;50.880;12.096;2022-11-03T00:36:22;11.50;;;3.70;;
24373;SDS011;12498;50.880;12.096;2022-11-03T00:38:49;15.82;;;4.35;;
24373;SDS011;12498;50.880;12.096;2022-11-03T00:41:15;15.13;;;3.85;;
24373;SDS011;12498;50.880;12.096;2022-11-03T00:43:41;17.23;;;4.05;;
24373;SDS011;12498;50.880;12.096;2022-11-03T00:46:08;14.23;;;3.60;;
24373;SDS011;12498;50.880;12.096;2022-11-03T00:48:34;18.60;;;4.45;;
24373;SDS011;12498;50.880;12.096;2022-11-03T00:51:21;13.75;;;3.80;;
24373;SDS011;12498;50.880;12.096;2022-11-03T00:53:58;16.70;;;4.20;;
24373;SDS011;12498;50.880;12.096;2022-11-03T00:56:38;14.45;;;4.32;;
24373;SDS011;12498;50.880;12.096;2022-11-03T00:59:05;17.08;;;3.78;;
24373;SDS011;12498;50.880;12.096;2022-11-03T01:01:32;14.20;;;3.80;;
24373;SDS011;12498;50.880;12.096;2022-11-03T01:04:04;16.35;;;4.00;;
24373;SDS011;12498;50.880;12.096;2022-11-03T01:06:50;12.07;;;3.22;;
24373;SDS011;12498;50.880;12.096;2022-11-03T01:09:27;12.33;;;3.87;;
24373;SDS011;12498;50.880;12.096;2022-11-03T01:11:59;15.52;;;3.85;;
24373;SDS011;12498;50.880;12.096;2022-11-03T01:14:30;15.95;;;3.47;;
24373;SDS011;12498;50.880;12.096;2022-11-03T01:19:22;15.52;;;3.85;;
24373;SDS011;12498;50.880;12.096;2022-11-03T01:21:49;16.08;;;3.92;;
24373;SDS011;12498;50.880;12.096;2022-11-03T01:24:16;11.40;;;3.45;;
24373;SDS011;12498;50.880;12.096;2022-11-03T01:26:41;14.45;;;3.80;;
24373;SDS011;12498;50.880;12.096;2022-11-03T01:29:07;14.85;;;3.80;;
24373;SDS011;12498;50.880;12.096;2022-11-03T01:31:32;11.05;;;3.40;;
24373;SDS011;12498;50.880;12.096;2022-11-03T01:33:58;13.27;;;3.90;;
24373;SDS011;12498;50.880;12.096;2022-11-03T01:36:24;13.13;;;3.80;;
24373;SDS011;12498;50.880;12.096;2022-11-03T01:38:50;14.93;;;3.80;;
24373;SDS011;12498;50.880;12.096;2022-11-03T01:41:19;19.02;;;4.03;;
24373;SDS011;12498;50.880;12.096;2022-11-03T01:43:51;16.75;;;3.80;;
24373;SDS011;12498;50.880;12.096;2022-11-03T01:46:32;19.52;;;3.75;;
24373;SDS011;12498;50.880;12.096;2022-11-03T01:49:23;16.20;;;4.15;;
24373;SDS011;12498;50.880;12.096;2022-11-03T01:52:05;19.45;;;4.20;;
24373;SDS011;12498;50.880;12.096;2022-11-03T01:54:32;18.00;;;4.15;;
24373;SDS011;12498;50.880;12.096;2022-11-03T01:57:00;15.68;;;3.60;;
24373;SDS011;12498;50.880;12.096;2022-11-03T01:59:31;15.48;;;3.85;;
24373;SDS011;12498;50.880;12.096;2022-11-03T02:01:56;16.45;;;4.32;;
24373;SDS011;12498;50.880;12.096;2022-11-03T02:04:24;21.45;;;4.40;;
24373;SDS011;12498;50.880;12.096;2022-11-03T02:06:56;14.52;;;3.80;;
24373;SDS011;12498;50.880;12.096;2022-11-03T02:09:30;12.18;;;3.40;;
24373;SDS011;12498;50.880;12.096;2022-11-03T02:11:55;17.13;;;4.47;;
24373;SDS011;12498;50.880;12.096;2022-11-03T02:14:30;18.02;;;3.83;;
24373;SDS011;12498;50.880;12.096;2022-11-03T02:16:57;12.80;;;4.18;;
24373;SDS011;12498;50.880;12.096;2022-11-03T02:22:19;14.13;;;3.85;;
24373;SDS011;12498;50.880;12.096;2022-11-03T02:25:01;14.55;;;4.03;;
24373;SDS011;12498;50.880;12.096;2022-11-03T02:27:49;17.60;;;3.63;;
24373;SDS011;12498;50.880;12.096;2022-11-03T02:30:15;19.52;;;3.83;;
24373;SDS011;12498;50.880;12.096;2022-11-03T02:35:22;13.65;;;3.95;;
24373;SDS011;12498;50.880;12.096;2022-11-03T02:38:07;21.55;;;4.43;;
24373;SDS011;12498;50.880;12.096;2022-11-03T02:40:40;15.30;;;3.88;;
24373;SDS011;12498;50.880;12.096;2022-11-03T02:43:13;18.48;;;4.32;;
24373;SDS011;12498;50.880;12.096;2022-11-03T02:45:40;21.23;;;4.80;;
24373;SDS011;12498;50.880;12.096;2022-11-03T02:48:09;20.85;;;4.40;;
24373;SDS011;12498;50.880;12.096;2022-11-03T02:50:36;16.48;;;4.22;;
24373;SDS011;12498;50.880;12.096;2022-11-03T02:53:02;19.48;;;4.43;;
24373;SDS011;12498;50.880;12.096;2022-11-03T02:55:32;17.48;;;4.15;;
24373;SDS011;12498;50.880;12.096;2022-11-03T03:00:34;15.98;;;3.83;;
24373;SDS011;12498;50.880;12.096;2022-11-03T03:03:19;14.75;;;4.40;;
24373;SDS011;12498;50.880;12.096;2022-11-03T03:05:49;15.48;;;4.15;;
24373;SDS011;12498;50.880;12.096;2022-11-03T03:08:19;14.40;;;4.15;;
24373;SDS011;12498;50.880;12.096;2022-11-03T03:10:47;13.55;;;4.15;;
24373;SDS011;12498;50.880;12.096;2022-11-03T03:13:14;15.40;;;3.90;;
24373;SDS011;12498;50.880;12.096;2022-11-03T03:15:44;10.32;;;3.85;;
24373;SDS011;12498;50.880;12.096;2022-11-03T03:23:49;16.90;;;4.55;;
24373;SDS011;12498;50.880;12.096;2022-11-03T03:26:19;17.90;;;4.47;;
24373;SDS011;12498;50.880;12.096;2022-11-03T03:28:56;17.83;;;4.18;;
24373;SDS011;12498;50.880;12.096;2022-11-03T03:31:36;14.57;;;4.53;;
24373;SDS011;12498;50.880;12.096;2022-11-03T03:34:04;14.70;;;4.22;;
24373;SDS011;12498;50.880;12.096;2022-11-03T03:36:30;14.75;;;3.75;;
24373;SDS011;12498;50.880;12.096;2022-11-03T03:39:01;12.40;;;4.05;;
24373;SDS011;12498;50.880;12.096;2022-11-03T03:41:29;14.05;;;4.10;;
24373;SDS011;12498;50.880;12.096;2022-11-03T03:43:58;16.15;;;4.38;;
24373;SDS011;12498;50.880;12.096;2022-11-03T03:46:31;15.43;;;4.47;;
24373;SDS011;12498;50.880;12.096;2022-11-03T03:49:02;12.50;;;4.15;;
24373;SDS011;12498;50.880;12.096;2022-11-03T03:51:28;18.10;;;4.70;;
24373;SDS011;12498;50.880;12.096;2022-11-03T03:53:54;17.70;;;4.85;;
24373;SDS011;12498;50.880;12.096;2022-11-03T03:56:22;18.55;;;4.57;;
24373;SDS011;12498;50.880;12.096;2022-11-03T03:58:48;8.70;;;3.03;;
24373;SDS011;12498;50.880;12.096;2022-11-03T04:01:14;14.73;;;4.22;;
24373;SDS011;12498;50.880;12.096;2022-11-03T04:03:39;13.48;;;4.03;;
24373;SDS011;12498;50.880;12.096;2022-11-03T04:06:05;12.07;;;4.35;;
24373;SDS011;12498;50.880;12.096;2022-11-03T04:08:32;15.48;;;4.28;;
24373;SDS011;12498;50.880;12.096;2022-11-03T04:10:57;17.73;;;4.32;;
24373;SDS011;12498;50.880;12.096;2022-11-03T04:13:41;16.45;;;3.95;;
24373;SDS011;12498;50.880;12.096;2022-11-03T04:16:25;13.32;;;4.07;;
24373;SDS011;12498;50.880;12.096;2022-11-03T04:19:10;15.82;;;4.13;;
24373;SDS011;12498;50.880;12.096;2022-11-03T04:21:54;14.18;;;4.30;;
24373;SDS011;12498;50.880;12.096;2022-11-03T04:24:38;14.50;;;4.10;;
24373;SDS011;12498;50.880;12.096;2022-11-03T04:27:19;19.42;;;4.57;;
24373;SDS011;12498;50.880;12.096;2022-11-03T04:30:06;16.73;;;4.00;;
24373;SDS011;12498;50.880;12.096;2022-11-03T04:35:24;17.42;;;4.80;;
24373;SDS011;12498;50.880;12.096;2022-11-03T04:38:01;12.95;;;4.82;;
24373;SDS011;12498;50.880;12.096;2022-11-03T04:40:33;15.70;;;5.05;;
24373;SDS011;12498;50.880;12.096;2022-11-03T04:42:58;14.75;;;4.22;;
24373;SDS011;12498;50.880;12.096;2022-11-03T04:45:27;17.58;;;4.50;;
24373;SDS011;12498;50.880;12.096;2022-11-03T04:47:54;18.50;;;4.78;;
24373;SDS011;12498;50.880;12.096;2022-11-03T04:50:22;15.45;;;4.82;;
24373;SDS011;12498;50.880;12.096;2022-11-03T04:52:53;14.40;;;4.95;;
24373;SDS011;12498;50.880;12.096;2022-11-03T04:55:21;14.95;;;4.57;;
24373;SDS011;12498;50.880;12.096;2022-11-03T04:57:46;17.77;;;4.53;;
24373;SDS011;12498;50.880;12.096;2022-11-03T05:00:18;11.38;;;4.18;;
24373;SDS011;12498;50.880;12.096;2022-11-03T05:02:44;15.95;;;4.40;;
24373;SDS011;12498;50.880;12.096;2022-11-03T05:05:17;17.25;;;4.78;;
24373;SDS011;12498;50.880;12.096;2022-11-03T05:07:43;16.27;;;4.43;;
24373;SDS011;12498;50.880;12.096;2022-11-03T05:10:11;13.27;;;4.13;;
24373;SDS011;12498;50.880;12.096;2022-11-03T05:12:44;16.13;;;5.07;;
24373;SDS011;12498;50.880;12.096;2022-11-03T05:15:28;13.98;;;4.65;;
24373;SDS011;12498;50.880;12.096;2022-11-03T05:20:51;10.03;;;3.57;;
24373;SDS011;12498;50.880;12.096;2022-11-03T05:23:20;15.65;;;4.40;;
24373;SDS011;12498;50.880;12.096;2022-11-03T05:25:47;29.42;;;12.00;;
24373;SDS011;12498;50.880;12.096;2022-11-03T05:30:55;20.80;;;7.95;;
24373;SDS011;12498;50.880;12.096;2022-11-03T05:35:51;17.58;;;6.78;;
24373;SDS011;12498;50.880;12.096;2022-11-03T05:38:18;16.67;;;7.53;;
24373;SDS011;12498;50.880;12.096;2022-11-03T05:40:48;21.30;;;8.20;;
24373;SDS011;12498;50.880;12.096;2022-11-03T05:43:15;24.77;;;8.13;;
24373;SDS011;12498;50.880;12.096;2022-11-03T05:45:42;19.67;;;7.10;;
24373;SDS011;12498;50.880;12.096;2022-11-03T05:48:15;34.67;;;12.10;;
24373;SDS011;12498;50.880;12.096;2022-11-03T05:50:48;23.63;;;9.95;;
24373;SDS011;12498;50.880;12.096;2022-11-03T05:53:28;26.40;;;10.25;;
24373;SDS011;12498;50.880;12.096;2022-11-03T05:55:56;30.52;;;11.77;;
24373;SDS011;12498;50.880;12.096;2022-11-03T05:58:28;28.02;;;10.05;;
24373;SDS011;12498;50.880;12.096;2022-11-03T06:04:11;19.70;;;8.10;;
24373;SDS011;12498;50.880;12.096;2022-11-03T06:09:24;17.45;;;6.70;;
24373;SDS011;12498;50.880;12.096;2022-11-03T06:11:51;18.40;;;5.95;;
24373;SDS011;12498;50.880;12.096;2022-11-03T06:14:21;19.83;;;6.30;;
24373;SDS011;12498;50.880;12.096;2022-11-03T06:16:53;17.45;;;5.72;;
24373;SDS011;12498;50.880;12.096;2022-11-03T06:19:40;11.93;;;5.00;;
24373;SDS011;12498;50.880;12.096;2022-11-03T06:22:22;18.15;;;5.32;;
24373;SDS011;12498;50.880;12.096;2022-11-03T06:24:51;15.68;;;4.95;;
24373;SDS011;12498;50.880;12.096;2022-11-03T06:27:22;12.90;;;5.13;;
24373;SDS011;12498;50.880;12.096;2022-11-03T06:29:56;15.13;;;4.68;;
24373;SDS011;12498;50.880;12.096;2022-11-03T06:32:23;9.88;;;4.38;;
24373;SDS011;12498;50.880;12.096;2022-11-03T06:34:55;13.10;;;4.60;;
24373;SDS011;12498;50.880;12.096;2022-11-03T06:37:23;20.65;;;4.85;;
24373;SDS011;12498;50.880;12.096;2022-11-03T06:39:50;18.88;;;5.70;;
24373;SDS011;12498;50.880;12.096;2022-11-03T06:42:19;19.02;;;5.50;;
24373;SDS011;12498;50.880;12.096;2022-11-03T06:44:46;18.73;;;6.13;;
24373;SDS011;12498;50.880;12.096;2022-11-03T06:47:20;21.52;;;5.47;;
24373;SDS011;12498;50.880;12.096;2022-11-03T06:49:47;14.65;;;5.00;;
24373;SDS011;12498;50.880;12.096;2022-11-03T06:52:18;20.58;;;6.18;;
24373;SDS011;12498;50.880;12.096;2022-11-03T06:54:49;19.42;;;5.88;;
24373;SDS011;12498;50.880;12.096;2022-11-03T06:57:15;18.52;;;5.75;;
24373;SDS011;12498;50.880;12.096;2022-11-03T06:59:42;22.30;;;6.10;;
24373;SDS011;12498;50.880;12.096;2022-11-03T07:02:25;16.90;;;5.97;;
24373;SDS011;12498;50.880;12.096;2022-11-03T07:04:57;19.15;;;6.22;;
24373;SDS011;12498;50.880;12.096;2022-11-03T07:07:25;18.67;;;5.40;;
24373;SDS011;12498;50.880;12.096;2022-11-03T07:09:51;19.58;;;5.80;;
24373;SDS011;12498;50.880;12.096;2022-11-03T07:12:17;20.08;;;5.65;;
24373;SDS011;12498;50.880;12.096;2022-11-03T07:14:43;19.52;;;6.22;;
24373;SDS011;12498;50.880;12.096;2022-11-03T07:17:16;18.10;;;6.22;;
24373;SDS011;12498;50.880;12.096;2022-11-03T07:19:45;19.17;;;6.72;;
24373;SDS011;12498;50.880;12.096;2022-11-03T07:22:21;17.88;;;6.20;;
24373;SDS011;12498;50.880;12.096;2022-11-03T07:24:47;15.27;;;5.80;;
24373;SDS011;12498;50.880;12.096;2022-11-03T07:29:40;23.50;;;5.80;;
24373;SDS011;12498;50.880;12.096;2022-11-03T07:32:15;21.75;;;5.35;;
24373;SDS011;12498;50.880;12.096;2022-11-03T07:34:43;16.20;;;5.05;;
24373;SDS011;12498;50.880;12.096;2022-11-03T07:37:14;15.52;;;4.47;;
24373;SDS011;12498;50.880;12.096;2022-11-03T07:39:42;16.00;;;4.38;;
24373;SDS011;12498;50.880;12.096;2022-11-03T07:42:14;13.05;;;4.18;;
24373;SDS011;12498;50.880;12.096;2022-11-03T07:44:42;16.55;;;5.22;;
24373;SDS011;12498;50.880;12.096;2022-11-03T07:47:17;33.50;;;15.10;;
24373;SDS011;12498;50.880;12.096;2022-11-03T07:49:44;16.02;;;6.28;;
24373;SDS011;12498;50.880;12.096;2022-11-03T07:52:11;23.00;;;9.30;;
24373;SDS011;12498;50.880;12.096;2022-11-03T07:54:38;13.82;;;5.75;;
24373;SDS011;12498;50.880;12.096;2022-11-03T07:57:12;13.48;;;5.00;;
24373;SDS011;12498;50.880;12.096;2022-11-03T07:59:41;20.77;;;7.88;;
24373;SDS011;12498;50.880;12.096;2022-11-03T08:04:45;13.05;;;4.85;;
24373;SDS011;12498;50.880;12.096;2022-11-03T08:07:11;10.90;;;4.10;;
24373;SDS011;12498;50.880;12.096;2022-11-03T08:09:36;13.95;;;4.13;;
24373;SDS011;12498;50.880;12.096;2022-11-03T08:12:02;9.95;;;4.00;;
24373;SDS011;12498;50.880;12.096;2022-11-03T08:14:28;11.90;;;4.72;;
24373;SDS011;12498;50.880;12.096;2022-11-03T08:16:55;11.68;;;4.40;;
24373;SDS011;12498;50.880;12.096;2022-11-03T08:19:21;11.73;;;4.38;;
24373;SDS011;12498;50.880;12.096;2022-11-03T08:21:47;12.63;;;4.30;;
24373;SDS011;12498;50.880;12.096;2022-11-03T08:24:13;13.13;;;3.65;;
24373;SDS011;12498;50.880;12.096;2022-11-03T08:26:39;10.85;;;3.40;;
24373;SDS011;12498;50.880;12.096;2022-11-03T08:29:05;14.43;;;4.15;;
24373;SDS011;12498;50.880;12.096;2022-11-03T08:31:31;13.05;;;3.33;;
24373;SDS011;12498;50.880;12.096;2022-11-03T08:33:57;12.43;;;3.45;;
24373;SDS011;12498;50.880;12.096;2022-11-03T08:36:23;14.88;;;4.28;;
24373;SDS011;12498;50.880;12.096;2022-11-03T08:38:49;15.02;;;4.88;;
24373;SDS011;12498;50.880;12.096;2022-11-03T08:41:15;11.02;;;4.22;;
24373;SDS011;12498;50.880;12.096;2022-11-03T08:43:40;12.50;;;3.85;;
24373;SDS011;12498;50.880;12.096;2022-11-03T08:46:06;10.75;;;3.08;;
24373;SDS011;12498;50.880;12.096;2022-11-03T08:48:32;13.45;;;3.30;;
24373;SDS011;12498;50.880;12.096;2022-11-03T08:50:57;11.93;;;3.47;;
24373;SDS011;12498;50.880;12.096;2022-11-03T08:53:23;12.23;;;3.50;;
24373;SDS011;12498;50.880;12.096;2022-11-03T08:55:50;14.40;;;3.45;;
24373;SDS011;12498;50.880;12.096;2022-11-03T08:58:20;13.43;;;3.58;;
24373;SDS011;12498;50.880;12.096;2022-11-03T09:00:46;12.10;;;4.28;;
24373;SDS011;12498;50.880;12.096;2022-11-03T09:03:12;13.98;;;4.20;;
24373;SDS011;12498;50.880;12.096;2022-11-03T09:05:39;18.38;;;7.65;;
24373;SDS011;12498;50.880;12.096;2022-11-03T09:08:05;21.95;;;10.18;;
24373;SDS011;12498;50.880;12.096;2022-11-03T09:10:31;17.58;;;5.32;;
24373;SDS011;12498;50.880;12.096;2022-11-03T09:12:57;12.07;;;4.18;;
24373;SDS011;12498;50.880;12.096;2022-11-03T09:15:23;8.68;;;3.33;;
24373;SDS011;12498;50.880;12.096;2022-11-03T09:17:48;9.55;;;3.55;;
24373;SDS011;12498;50.880;12.096;2022-11-03T09:20:15;12.55;;;3.17;;
24373;SDS011;12498;50.880;12.096;2022-11-03T09:22:41;13.18;;;3.65;;
24373;SDS011;12498;50.880;12.096;2022-11-03T09:25:07;11.32;;;3.45;;
24373;SDS011;12498;50.880;12.096;2022-11-03T09:27:33;12.50;;;3.38;;
24373;SDS011;12498;50.880;12.096;2022-11-03T09:29:59;11.93;;;3.00;;
24373;SDS011;12498;50.880;12.096;2022-11-03T09:32:24;11.25;;;3.70;;
24373;SDS011;12498;50.880;12.096;2022-11-03T09:34:50;12.65;;;3.55;;
24373;SDS011;12498;50.880;12.096;2022-11-03T09:37:16;11.75;;;3.33;;
24373;SDS011;12498;50.880;12.096;2022-11-03T09:39:42;7.95;;;3.08;;
24373;SDS011;12498;50.880;12.096;2022-11-03T09:42:09;10.27;;;3.08;;
24373;SDS011;12498;50.880;12.096;2022-11-03T09:44:36;14.63;;;3.65;;
24373;SDS011;12498;50.880;12.096;2022-11-03T09:47:03;16.92;;;4.32;;
24373;SDS011;12498;50.880;12.096;2022-11-03T09:49:30;17.58;;;4.30;;
24373;SDS011;12498;50.880;12.096;2022-11-03T09:51:57;12.65;;;4.25;;
24373;SDS011;12498;50.880;12.096;2022-11-03T09:54:23;10.90;;;3.80;;
24373;SDS011;12498;50.880;12.096;2022-11-03T09:56:51;13.93;;;4.40;;
24373;SDS011;12498;50.880;12.096;2022-11-03T09:59:20;16.60;;;5.88;;
24373;SDS011;12498;50.880;12.096;2022-11-03T10:01:48;18.52;;;8.63;;
24373;SDS011;12498;50.880;12.096;2022-11-03T10:04:17;11.85;;;4.55;;
24373;SDS011;12498;50.880;12.096;2022-11-03T10:06:47;13.15;;;3.70;;
24373;SDS011;12498;50.880;12.096;2022-11-03T10:09:16;10.07;;;4.05;;
24373;SDS011;12498;50.880;12.096;2022-11-03T10:11:44;14.18;;;4.03;;
24373;SDS011;12498;50.880;12.096;2022-11-03T10:14:14;9.90;;;3.40;;
24373;SDS011;12498;50.880;12.096;2022-11-03T10:16:41;9.25;;;3.50;;
24373;SDS011;12498;50.880;12.096;2022-11-03T10:19:12;10.85;;;3.25;;
24373;SDS011;12498;50.880;12.096;2022-11-03T10:21:38;12.45;;;3.40;;
24373;SDS011;12498;50.880;12.096;2022-11-03T10:24:09;16.15;;;4.10;;
24373;SDS011;12498;50.880;12.096;2022-11-03T10:26:42;14.80;;;4.95;;
24373;SDS011;12498;50.880;12.096;2022-11-03T10:29:16;8.23;;;2.90;;
24373;SDS011;12498;50.880;12.096;2022-11-03T10:31:46;12.35;;;2.65;;
24373;SDS011;12498;50.880;12.096;2022-11-03T10:34:24;10.17;;;2.53;;
24373;SDS011;12498;50.880;12.096;2022-11-03T10:37:02;6.13;;;2.58;;
24373;SDS011;12498;50.880;12.096;2022-11-03T10:39:36;8.43;;;2.67;;
24373;SDS011;12498;50.880;12.096;2022-11-03T10:42:02;11.07;;;3.17;;
24373;SDS011;12498;50.880;12.096;2022-11-03T10:44:28;8.50;;;2.80;;
24373;SDS011;12498;50.880;12.096;2022-11-03T10:46:58;5.75;;;2.53;;
24373;SDS011;12498;50.880;12.096;2022-11-03T10:49:26;10.80;;;2.40;;
24373;SDS011;12498;50.880;12.096;2022-11-03T10:52:04;9.27;;;2.58;;
24373;SDS011;12498;50.880;12.096;2022-11-03T10:54:39;8.55;;;2.58;;
24373;SDS011;12498;50.880;12.096;2022-11-03T10:57:05;12.50;;;2.80;;
24373;SDS011;12498;50.880;12.096;2022-11-03T10:59:35;8.65;;;2.90;;
24373;SDS011;12498;50.880;12.096;2022-11-03T11:02:02;7.05;;;2.60;;
24373;SDS011;12498;50.880;12.096;2022-11-03T11:04:37;9.73;;;3.10;;
24373;SDS011;12498;50.880;12.096;2022-11-03T11:07:10;12.15;;;2.92;;
24373;SDS011;12498;50.880;12.096;2022-11-03T11:09:42;7.03;;;2.38;;
24373;SDS011;12498;50.880;12.096;2022-11-03T11:12:17;9.73;;;3.35;;
24373;SDS011;12498;50.880;12.096;2022-11-03T11:17:41;10.80;;;3.08;;
24373;SDS011;12498;50.880;12.096;2022-11-03T11:22:44;8.30;;;2.78;;
24373;SDS011;12498;50.880;12.096;2022-11-03T11:25:09;7.93;;;2.53;;
24373;SDS011;12498;50.880;12.096;2022-11-03T11:30:02;57.00;;;23.25;;
24373;SDS011;12498;50.880;12.096;2022-11-03T11:32:57;61.17;;;24.80;;
24373;SDS011;12498;50.880;12.096;2022-11-03T11:37:50;34.30;;;13.57;;
24373;SDS011;12498;50.880;12.096;2022-11-03T11:48:29;138.13;;;55.47;;
24373;SDS011;12498;50.880;12.096;2022-11-03T11:50:56;91.20;;;38.58;;
24373;SDS011;12498;50.880;12.096;2022-11-03T11:53:22;85.85;;;36.78;;
24373;SDS011;12498;50.880;12.096;2022-11-03T11:58:24;77.18;;;33.83;;
24373;SDS011;12498;50.880;12.096;2022-11-03T12:00:57;90.68;;;38.72;;
24373;SDS011;12498;50.880;12.096;2022-11-03T12:03:32;51.97;;;21.67;;
24373;SDS011;12498;50.880;12.096;2022-11-03T12:06:11;84.65;;;34.70;;
24373;SDS011;12498;50.880;12.096;2022-11-03T12:08:37;73.82;;;31.65;;
24373;SDS011;12498;50.880;12.096;2022-11-03T12:11:09;75.30;;;32.30;;
24373;SDS011;12498;50.880;12.096;2022-11-03T12:13:43;61.70;;;26.58;;
24373;SDS011;12498;50.880;12.096;2022-11-03T12:16:28;44.20;;;19.85;;
24373;SDS011;12498;50.880;12.096;2022-11-03T12:18:53;30.45;;;14.02;;
24373;SDS011;12498;50.880;12.096;2022-11-03T12:26:55;12.25;;;4.65;;
24373;SDS011;12498;50.880;12.096;2022-11-03T12:29:21;9.77;;;3.67;;
24373;SDS011;12498;50.880;12.096;2022-11-03T12:31:47;16.35;;;3.85;;
24373;SDS011;12498;50.880;12.096;2022-11-03T12:34:13;6.80;;;2.75;;
24373;SDS011;12498;50.880;12.096;2022-11-03T12:36:38;9.25;;;3.38;;
24373;SDS011;12498;50.880;12.096;2022-11-03T12:39:04;9.30;;;2.60;;
24373;SDS011;12498;50.880;12.096;2022-11-03T12:41:30;8.68;;;2.60;;
24373;SDS011;12498;50.880;12.096;2022-11-03T12:43:55;6.32;;;1.98;;
24373;SDS011;12498;50.880;12.096;2022-11-03T12:46:21;7.50;;;2.22;;
24373;SDS011;12498;50.880;12.096;2022-11-03T12:48:47;8.02;;;2.17;;
24373;SDS011;12498;50.880;12.096;2022-11-03T12:51:17;8.57;;;2.25;;
24373;SDS011;12498;50.880;12.096;2022-11-03T12:53:47;7.20;;;2.58;;
24373;SDS011;12498;50.880;12.096;2022-11-03T12:56:14;9.75;;;2.50;;
24373;SDS011;12498;50.880;12.096;2022-11-03T12:58:40;7.68;;;2.47;;
24373;SDS011;12498;50.880;12.096;2022-11-03T13:01:09;8.82;;;2.80;;
24373;SDS011;12498;50.880;12.096;2022-11-03T13:03:34;9.02;;;2.40;;
24373;SDS011;12498;50.880;12.096;2022-11-03T13:06:01;7.43;;;2.45;;
24373;SDS011;12498;50.880;12.096;2022-11-03T13:08:29;7.20;;;2.10;;
24373;SDS011;12498;50.880;12.096;2022-11-03T13:10:55;12.30;;;3.05;;
24373;SDS011;12498;50.880;12.096;2022-11-03T13:13:21;8.43;;;2.80;;
24373;SDS011;12498;50.880;12.096;2022-11-03T13:15:47;10.10;;;3.00;;
24373;SDS011;12498;50.880;12.096;2022-11-03T13:18:12;9.07;;;2.95;;
24373;SDS011;12498;50.880;12.096;2022-11-03T13:20:38;8.05;;;2.75;;
24373;SDS011;12498;50.880;12.096;2022-11-03T13:23:04;7.95;;;2.53;;
24373;SDS011;12498;50.880;12.096;2022-11-03T13:25:29;9.23;;;2.92;;
24373;SDS011;12498;50.880;12.096;2022-11-03T13:27:55;7.95;;;3.15;;
24373;SDS011;12498;50.880;12.096;2022-11-03T13:30:25;13.63;;;6.45;;
24373;SDS011;12498;50.880;12.096;2022-11-03T13:32:51;12.55;;;4.70;;
24373;SDS011;12498;50.880;12.096;2022-11-03T13:35:20;12.90;;;4.85;;
24373;SDS011;12498;50.880;12.096;2022-11-03T13:37:46;8.30;;;2.75;;
24373;SDS011;12498;50.880;12.096;2022-11-03T13:40:11;7.35;;;2.80;;
24373;SDS011;12498;50.880;12.096;2022-11-03T13:42:38;5.50;;;2.58;;
24373;SDS011;12498;50.880;12.096;2022-11-03T13:45:04;7.68;;;2.60;;
24373;SDS011;12498;50.880;12.096;2022-11-03T13:47:31;6.95;;;2.42;;
24373;SDS011;12498;50.880;12.096;2022-11-03T13:49:57;9.65;;;2.50;;
24373;SDS011;12498;50.880;12.096;2022-11-03T13:52:24;9.80;;;2.50;;
24373;SDS011;12498;50.880;12.096;2022-11-03T13:54:50;7.88;;;2.60;;
24373;SDS011;12498;50.880;12.096;2022-11-03T13:57:16;11.98;;;3.17;;
24373;SDS011;12498;50.880;12.096;2022-11-03T13:59:42;8.90;;;2.92;;
24373;SDS011;12498;50.880;12.096;2022-11-03T14:02:08;8.50;;;3.00;;
24373;SDS011;12498;50.880;12.096;2022-11-03T14:04:35;6.43;;;2.95;;
24373;SDS011;12498;50.880;12.096;2022-11-03T14:07:03;10.07;;;2.75;;
24373;SDS011;12498;50.880;12.096;2022-11-03T14:09:29;10.85;;;3.17;;
24373;SDS011;12498;50.880;12.096;2022-11-03T14:11:55;10.60;;;3.00;;
24373;SDS011;12498;50.880;12.096;2022-11-03T14:14:39;7.30;;;2.63;;
24373;SDS011;12498;50.880;12.096;2022-11-03T14:17:06;9.05;;;2.70;;
24373;SDS011;12498;50.880;12.096;2022-11-03T14:19:31;8.40;;;2.80;;
24373;SDS011;12498;50.880;12.096;2022-11-03T14:21:57;10.25;;;4.05;;
24373;SDS011;12498;50.880;12.096;2022-11-03T14:24:23;10.55;;;3.58;;
24373;SDS011;12498;50.880;12.096;2022-11-03T14:26:48;8.75;;;2.85;;
24373;SDS011;12498;50.880;12.096;2022-11-03T14:29:14;5.75;;;2.70;;
24373;SDS011;12498;50.880;12.096;2022-11-03T14:31:40;9.77;;;3.25;;
24373;SDS011;12498;50.880;12.096;2022-11-03T14:34:05;6.80;;;3.10;;
24373;SDS011;12498;50.880;12.096;2022-11-03T14:36:31;7.03;;;2.75;;
24373;SDS011;12498;50.880;12.096;2022-11-03T14:38:56;7.65;;;3.25;;
24373;SDS011;12498;50.880;12.096;2022-11-03T14:41:22;7.05;;;2.88;;
24373;SDS011;12498;50.880;12.096;2022-11-03T14:44:06;12.93;;;5.72;;
24373;SDS011;12498;50.880;12.096;2022-11-03T14:46:32;16.13;;;4.75;;
24373;SDS011;12498;50.880;12.096;2022-11-03T14:48:57;12.93;;;3.60;;
24373;SDS011;12498;50.880;12.096;2022-11-03T14:51:26;9.53;;;3.50;;
24373;SDS011;12498;50.880;12.096;2022-11-03T14:53:53;12.27;;;3.38;;
24373;SDS011;12498;50.880;12.096;2022-11-03T14:56:18;9.02;;;3.17;;
24373;SDS011;12498;50.880;12.096;2022-11-03T14:58:44;9.13;;;2.83;;
24373;SDS011;12498;50.880;12.096;2022-11-03T15:01:09;8.93;;;3.42;;
24373;SDS011;12498;50.880;12.096;2022-11-03T15:03:35;10.90;;;2.90;;
24373;SDS011;12498;50.880;12.096;2022-11-03T15:06:01;9.88;;;3.17;;
24373;SDS011;12498;50.880;12.096;2022-11-03T15:08:27;12.00;;;4.68;;
24373;SDS011;12498;50.880;12.096;2022-11-03T15:10:53;17.92;;;9.98;;
24373;SDS011;12498;50.880;12.096;2022-11-03T15:13:19;15.95;;;6.18;;
24373;SDS011;12498;50.880;12.096;2022-11-03T15:15:45;12.18;;;5.63;;
24373;SDS011;12498;50.880;12.096;2022-11-03T15:18:10;11.80;;;3.63;;
24373;SDS011;12498;50.880;12.096;2022-11-03T15:20:36;11.68;;;3.60;;
24373;SDS011;12498;50.880;12.096;2022-11-03T15:23:02;13.45;;;3.90;;
24373;SDS011;12498;50.880;12.096;2022-11-03T15:25:28;11.02;;;3.45;;
24373;SDS011;12498;50.880;12.096;2022-11-03T15:27:54;11.52;;;3.80;;
24373;SDS011;12498;50.880;12.096;2022-11-03T15:30:20;10.60;;;4.20;;
24373;SDS011;12498;50.880;12.096;2022-11-03T15:32:45;15.23;;;4.40;;
24373;SDS011;12498;50.880;12.096;2022-11-03T15:35:11;11.68;;;4.05;;
24373;SDS011;12498;50.880;12.096;2022-11-03T15:37:37;11.43;;;4.60;;
24373;SDS011;12498;50.880;12.096;2022-11-03T15:40:03;10.18;;;3.75;;